createdAt,value
2023-05-16T00:01:16.555Z,11.93
2023-05-16T00:03:43.204Z,9.97
2023-05-16T00:06:09.577Z,11.97
2023-05-16T00:08:35.860Z,11.40
2023-05-16T00:11:02.309Z,12.10
2023-05-16T00:13:29.661Z,10.57
2023-05-16T00:15:56.181Z,9.00
2023-05-16T00:18:22.822Z,10.87
2023-05-16T00:20:49.889Z,9.77
2023-05-16T00:23:17.049Z,6.93
2023-05-16T00:25:43.397Z,8.00
2023-05-16T00:28:09.716Z,9.33
2023-05-16T00:30:36.259Z,6.63
2023-05-16T00:33:02.620Z,8.60
2023-05-16T00:35:28.984Z,6.87
2023-05-16T00:37:55.867Z,7.50
2023-05-16T00:40:22.130Z,6.77
2023-05-16T00:42:48.428Z,7.70
2023-05-16T00:45:14.710Z,6.63
2023-05-16T00:47:41.188Z,7.73
2023-05-16T00:50:07.673Z,7.50
2023-05-16T00:52:34.117Z,6.60
2023-05-16T00:55:01.096Z,6.00
2023-05-16T00:57:27.551Z,7.23
2023-05-16T00:59:54.507Z,7.27
2023-05-16T01:02:20.861Z,4.93
2023-05-16T01:04:48.351Z,5.30
2023-05-16T01:07:14.756Z,4.50
2023-05-16T01:09:41.345Z,6.30
2023-05-16T01:12:12.170Z,5.20
2023-05-16T01:14:38.466Z,6.57
2023-05-16T01:17:07.803Z,6.33
2023-05-16T01:19:52.952Z,7.07
2023-05-16T01:22:31.156Z,8.03
2023-05-16T01:25:07.778Z,7.50
2023-05-16T01:27:35.519Z,6.17
2023-05-16T01:30:10.963Z,5.93
2023-05-16T01:32:37.328Z,5.73
2023-05-16T01:35:03.821Z,6.90
2023-05-16T01:37:35.513Z,9.73
2023-05-16T01:40:07.688Z,7.60
2023-05-16T01:42:36.985Z,9.37
2023-05-16T01:45:08.854Z,7.90
2023-05-16T01:47:36.354Z,9.87
2023-05-16T01:50:09.190Z,8.87
2023-05-16T01:52:40.778Z,9.60
2023-05-16T01:55:10.323Z,13.50
2023-05-16T01:57:36.616Z,9.33
2023-05-16T02:00:02.967Z,7.97
2023-05-16T02:02:29.317Z,7.00
2023-05-16T02:04:55.664Z,7.03
2023-05-16T02:07:22.372Z,4.30
2023-05-16T02:09:48.699Z,6.20
2023-05-16T02:12:15.002Z,4.83
2023-05-16T02:14:41.410Z,4.70
2023-05-16T02:17:07.792Z,8.77
2023-05-16T02:19:34.146Z,7.40
2023-05-16T02:22:00.413Z,6.30
2023-05-16T02:24:26.628Z,6.37
2023-05-16T02:26:52.882Z,9.83
2023-05-16T02:29:19.107Z,7.07
2023-05-16T02:31:48.184Z,10.60
2023-05-16T02:34:15.290Z,10.27
2023-05-16T02:36:41.574Z,8.23
2023-05-16T02:39:09.918Z,8.27
2023-05-16T02:41:36.165Z,11.83
2023-05-16T02:44:02.699Z,13.57
2023-05-16T02:46:34.054Z,13.33
2023-05-16T02:49:00.550Z,14.03
2023-05-16T02:51:27.799Z,9.70
2023-05-16T02:53:56.829Z,11.17
2023-05-16T02:56:23.106Z,11.37
2023-05-16T02:58:49.953Z,11.97
2023-05-16T03:01:16.730Z,20.43
2023-05-16T03:03:43.162Z,12.37
2023-05-16T03:06:09.659Z,16.47
2023-05-16T03:08:35.972Z,12.57
2023-05-16T03:11:02.275Z,14.40
2023-05-16T03:13:30.014Z,15.33
2023-05-16T03:15:56.393Z,14.40
2023-05-16T03:18:22.718Z,16.13
2023-05-16T03:20:48.978Z,12.50
2023-05-16T03:23:15.323Z,12.13
2023-05-16T03:25:43.131Z,16.27
2023-05-16T03:28:09.707Z,17.90
2023-05-16T03:30:36.059Z,15.50
2023-05-16T03:33:03.801Z,21.80
2023-05-16T03:35:33.149Z,17.30
2023-05-16T03:37:59.438Z,15.47
2023-05-16T03:40:25.950Z,14.93
2023-05-16T03:42:52.238Z,14.87
2023-05-16T03:45:18.513Z,13.90
2023-05-16T03:47:44.931Z,25.57
2023-05-16T03:50:11.561Z,16.80
2023-05-16T03:52:37.965Z,14.80
2023-05-16T03:55:05.030Z,15.00
2023-05-16T03:57:32.434Z,18.93
2023-05-16T03:59:59.165Z,16.27
2023-05-16T04:02:25.615Z,16.83
2023-05-16T04:04:51.955Z,15.67
2023-05-16T04:07:18.227Z,14.83
2023-05-16T04:09:44.630Z,14.97
2023-05-16T04:12:11.016Z,19.30
2023-05-16T04:14:38.158Z,15.57
2023-05-16T04:17:04.618Z,16.40
2023-05-16T04:19:31.121Z,14.97
2023-05-16T04:21:57.440Z,17.27
2023-05-16T04:24:26.499Z,16.33
2023-05-16T04:26:52.870Z,12.40
2023-05-16T04:29:19.616Z,19.77
2023-05-16T04:31:46.065Z,15.83
2023-05-16T04:34:13.137Z,12.80
2023-05-16T04:36:39.498Z,17.37
2023-05-16T04:39:06.275Z,14.10
2023-05-16T04:41:33.660Z,14.93
2023-05-16T04:44:01.692Z,17.70
2023-05-16T04:46:28.003Z,18.67
2023-05-16T04:48:54.324Z,14.57
2023-05-16T04:51:20.595Z,11.90
2023-05-16T04:53:46.845Z,15.53
2023-05-16T04:56:13.311Z,15.23
2023-05-16T04:58:41.062Z,18.60
2023-05-16T05:01:09.185Z,15.07
2023-05-16T05:03:36.000Z,12.23
2023-05-16T05:06:02.290Z,16.10
2023-05-16T05:08:28.572Z,13.47
2023-05-16T05:10:55.885Z,12.60
2023-05-16T05:13:22.209Z,18.70
2023-05-16T05:15:50.300Z,13.47
2023-05-16T05:18:16.692Z,12.60
2023-05-16T05:20:43.455Z,13.97
2023-05-16T05:23:09.733Z,16.77
2023-05-16T05:25:37.783Z,13.90
2023-05-16T05:28:04.341Z,13.37
2023-05-16T05:30:30.660Z,15.60
2023-05-16T05:32:57.013Z,15.77
2023-05-16T05:35:23.362Z,15.03
2023-05-16T05:37:49.643Z,12.73
2023-05-16T05:40:16.184Z,14.57
2023-05-16T05:42:44.186Z,8.50
2023-05-16T05:45:12.439Z,13.43
2023-05-16T05:47:38.996Z,11.63
2023-05-16T05:50:05.953Z,16.67
2023-05-16T05:52:32.355Z,15.87
2023-05-16T05:54:59.423Z,11.80
2023-05-16T05:57:26.030Z,11.83
2023-05-16T05:59:52.274Z,12.20
2023-05-16T06:02:18.735Z,15.43
2023-05-16T06:04:45.252Z,15.77
2023-05-16T06:07:11.663Z,14.17
2023-05-16T06:09:37.894Z,19.57
2023-05-16T06:12:04.539Z,21.47
2023-05-16T06:14:30.845Z,11.43
2023-05-16T06:16:57.311Z,11.10
2023-05-16T06:19:23.750Z,9.03
2023-05-16T06:21:50.525Z,12.90
2023-05-16T06:24:16.924Z,9.43
2023-05-16T06:26:46.068Z,8.90
2023-05-16T06:29:12.346Z,11.93
2023-05-16T06:31:38.651Z,12.53
2023-05-16T06:34:04.950Z,11.07
2023-05-16T06:36:31.350Z,12.17
2023-05-16T06:38:57.608Z,16.53
2023-05-16T06:41:23.986Z,12.93
2023-05-16T06:43:50.371Z,21.37
2023-05-16T06:46:16.707Z,18.87
2023-05-16T06:48:42.982Z,10.63
2023-05-16T06:51:09.846Z,12.17
2023-05-16T06:53:36.634Z,11.90
2023-05-16T06:56:03.109Z,12.90
2023-05-16T06:58:29.410Z,10.03
2023-05-16T07:00:55.804Z,11.90
2023-05-16T07:03:22.463Z,11.10
2023-05-16T07:05:51.532Z,13.07
2023-05-16T07:08:17.834Z,11.13
2023-05-16T07:10:44.557Z,11.63
2023-05-16T07:13:10.956Z,12.83
2023-05-16T07:15:37.276Z,12.97
2023-05-16T07:18:03.809Z,9.30
2023-05-16T07:20:30.269Z,11.30
2023-05-16T07:22:57.631Z,13.20
2023-05-16T07:25:24.592Z,11.80
2023-05-16T07:27:51.026Z,10.00
2023-05-16T07:30:17.749Z,10.17
2023-05-16T07:32:44.129Z,9.13
2023-05-16T07:35:10.850Z,10.87
2023-05-16T07:37:38.326Z,25.67
2023-05-16T07:40:04.994Z,10.03
2023-05-16T07:42:31.593Z,9.73
2023-05-16T07:44:58.004Z,7.10
2023-05-16T07:47:24.421Z,6.80
2023-05-16T07:49:50.923Z,11.00
2023-05-16T07:52:17.433Z,7.23
2023-05-16T07:54:43.770Z,8.33
2023-05-16T07:57:10.945Z,8.50
2023-05-16T07:59:37.376Z,8.63
2023-05-16T08:02:03.911Z,8.40
2023-05-16T08:04:30.219Z,9.23
2023-05-16T08:06:56.506Z,10.93
2023-05-16T08:09:22.905Z,8.40
2023-05-16T08:11:49.312Z,7.70
2023-05-16T08:14:15.785Z,9.60
2023-05-16T08:16:42.280Z,5.40
2023-05-16T08:19:08.844Z,13.13
2023-05-16T08:21:35.224Z,8.33
2023-05-16T08:24:01.672Z,9.27
2023-05-16T08:26:28.034Z,4.57
2023-05-16T08:28:54.405Z,9.57
2023-05-16T08:31:21.203Z,6.40
2023-05-16T08:33:47.683Z,8.60
2023-05-16T08:36:15.766Z,6.70
2023-05-16T08:38:42.274Z,8.40
2023-05-16T08:41:08.558Z,9.53
2023-05-16T08:43:35.864Z,4.47
2023-05-16T08:46:02.264Z,6.23
2023-05-16T08:48:29.739Z,9.67
2023-05-16T08:50:56.295Z,8.33
2023-05-16T08:53:27.391Z,5.03
2023-05-16T08:55:54.273Z,4.93
2023-05-16T08:58:20.930Z,6.80
2023-05-16T09:00:47.699Z,7.47
2023-05-16T09:03:14.386Z,6.47
2023-05-16T09:05:41.189Z,7.90
2023-05-16T09:08:07.494Z,7.20
2023-05-16T09:10:33.968Z,5.87
2023-05-16T09:13:00.368Z,7.30
2023-05-16T09:15:31.355Z,4.83
2023-05-16T09:18:00.409Z,6.10
2023-05-16T09:20:27.076Z,7.07
2023-05-16T09:22:54.608Z,6.43
2023-05-16T09:25:29.472Z,4.60
2023-05-16T09:27:58.337Z,6.20
2023-05-16T09:30:28.419Z,5.23
2023-05-16T09:32:54.756Z,6.73
2023-05-16T09:35:35.058Z,3.90
2023-05-16T09:38:13.436Z,4.37
2023-05-16T09:40:40.914Z,5.50
2023-05-16T09:43:08.379Z,5.23
2023-05-16T09:45:35.586Z,4.07
2023-05-16T09:48:05.908Z,6.70
2023-05-16T09:50:32.864Z,6.90
2023-05-16T09:52:59.211Z,5.00
2023-05-16T09:55:25.793Z,5.83
2023-05-16T09:57:52.469Z,4.60
2023-05-16T10:00:19.114Z,4.23
2023-05-16T10:02:45.642Z,7.87
2023-05-16T10:05:12.063Z,2.63
2023-05-16T10:07:39.752Z,4.30
2023-05-16T10:10:07.427Z,4.33
2023-05-16T10:12:34.748Z,6.83
2023-05-16T10:15:01.630Z,6.53
2023-05-16T10:17:32.073Z,5.37
2023-05-16T10:20:01.644Z,5.17
2023-05-16T10:22:28.284Z,5.40
2023-05-16T10:25:01.307Z,6.03
2023-05-16T10:27:28.023Z,4.03
2023-05-16T10:29:55.265Z,6.23
2023-05-16T10:32:23.775Z,5.80
2023-05-16T10:34:51.000Z,8.73
2023-05-16T10:37:17.652Z,6.27
2023-05-16T10:39:44.275Z,5.23
2023-05-16T10:42:11.709Z,6.43
2023-05-16T10:44:39.142Z,4.67
2023-05-16T10:47:05.596Z,4.20
2023-05-16T10:49:32.104Z,5.40
2023-05-16T10:52:11.479Z,7.37
2023-05-16T10:54:39.653Z,6.43
2023-05-16T10:57:08.330Z,3.60
2023-05-16T10:59:41.786Z,6.93
2023-05-16T11:02:22.020Z,4.23
2023-05-16T11:04:49.407Z,3.23
2023-05-16T11:07:17.236Z,4.50
2023-05-16T11:09:44.519Z,5.23
2023-05-16T11:12:10.898Z,5.97
2023-05-16T11:14:45.094Z,6.57
2023-05-16T11:17:13.307Z,4.00
2023-05-16T11:19:42.671Z,5.30
2023-05-16T11:22:10.150Z,5.13
2023-05-16T11:24:38.010Z,4.77
2023-05-16T11:27:04.993Z,6.80
2023-05-16T11:29:32.643Z,5.20
2023-05-16T11:31:59.710Z,5.93
2023-05-16T11:34:26.387Z,6.70
2023-05-16T11:36:53.044Z,6.00
2023-05-16T11:39:20.111Z,5.53
2023-05-16T11:41:48.838Z,3.60
2023-05-16T11:44:15.490Z,5.97
2023-05-16T11:46:42.034Z,4.30
2023-05-16T11:49:11.561Z,3.43
2023-05-16T11:51:38.700Z,5.63
2023-05-16T11:54:05.221Z,5.17
2023-05-16T11:56:32.287Z,3.93
2023-05-16T11:59:01.656Z,4.77
2023-05-16T12:01:35.539Z,4.80
2023-05-16T12:04:02.236Z,5.70
2023-05-16T12:06:31.156Z,3.37
2023-05-16T12:08:57.478Z,3.43
2023-05-16T12:11:24.131Z,5.13
2023-05-16T12:13:50.556Z,5.00
2023-05-16T12:16:17.015Z,6.57
2023-05-16T12:18:44.306Z,5.93
2023-05-16T12:21:10.851Z,4.83
2023-05-16T12:23:37.275Z,5.23
2023-05-16T12:26:07.773Z,3.13
2023-05-16T12:28:39.373Z,4.83
2023-05-16T12:31:29.876Z,4.73
2023-05-16T12:33:59.024Z,8.23
2023-05-16T12:36:26.446Z,6.37
2023-05-16T12:38:53.347Z,2.20
2023-05-16T12:41:20.265Z,3.53
2023-05-16T12:43:46.720Z,5.03
2023-05-16T12:46:13.136Z,4.33
2023-05-16T12:48:43.264Z,6.07
2023-05-16T12:51:17.096Z,4.83
2023-05-16T12:53:54.357Z,3.97
2023-05-16T12:56:28.452Z,2.90
2023-05-16T12:58:55.278Z,4.93
2023-05-16T13:01:21.794Z,4.97
2023-05-16T13:03:48.248Z,3.90
2023-05-16T13:06:14.717Z,3.47
2023-05-16T13:08:41.262Z,6.30
2023-05-16T13:11:07.667Z,5.33
2023-05-16T13:13:36.496Z,6.27
2023-05-16T13:16:03.094Z,5.83
2023-05-16T13:18:29.408Z,5.10
2023-05-16T13:20:56.030Z,6.20
2023-05-16T13:23:22.396Z,4.87
2023-05-16T13:25:49.507Z,4.37
2023-05-16T13:28:16.238Z,2.13
2023-05-16T13:30:42.605Z,3.17
2023-05-16T13:33:08.963Z,2.43
2023-05-16T13:35:35.375Z,2.40
2023-05-16T13:38:01.761Z,3.37
2023-05-16T13:40:29.392Z,3.10
2023-05-16T13:42:56.651Z,3.47
2023-05-16T13:45:23.072Z,4.40
2023-05-16T13:47:49.439Z,3.57
2023-05-16T13:50:16.048Z,1.93
2023-05-16T13:52:42.443Z,3.97
2023-05-16T13:55:09.547Z,4.00
2023-05-16T13:57:36.565Z,2.57
2023-05-16T14:00:30.935Z,2.10
2023-05-16T14:02:55.110Z,2.67
2023-05-16T14:05:21.489Z,4.53
2023-05-16T14:07:47.825Z,4.73
2023-05-16T14:10:14.147Z,3.93
2023-05-16T14:12:40.653Z,1.90
2023-05-16T14:15:07.731Z,2.07
2023-05-16T14:17:34.145Z,4.47
2023-05-16T14:20:00.603Z,1.90
2023-05-16T14:22:28.449Z,2.20
2023-05-16T14:24:54.777Z,3.83
2023-05-16T14:27:21.155Z,3.83
2023-05-16T14:29:48.765Z,5.07
2023-05-16T14:32:15.163Z,2.53
2023-05-16T14:34:41.685Z,3.57
2023-05-16T14:37:10.160Z,3.17
2023-05-16T14:39:36.783Z,3.30
2023-05-16T14:42:03.173Z,1.87
2023-05-16T14:44:29.466Z,3.70
2023-05-16T14:46:55.750Z,4.73
2023-05-16T14:49:22.024Z,1.63
2023-05-16T14:51:50.370Z,3.08
2023-05-16T14:54:17.031Z,3.35
2023-05-16T14:56:43.453Z,3.15
2023-05-16T14:59:09.725Z,3.23
2023-05-16T15:01:36.242Z,4.80
2023-05-16T15:04:02.588Z,3.17
2023-05-16T15:06:29.239Z,3.60
2023-05-16T15:08:55.582Z,3.43
2023-05-16T15:11:22.000Z,2.67
2023-05-16T15:13:48.574Z,3.53
2023-05-16T15:16:14.951Z,3.20
2023-05-16T15:18:41.679Z,3.30
2023-05-16T15:21:08.907Z,3.87
2023-05-16T15:23:35.516Z,4.17
2023-05-16T15:26:01.966Z,4.30
2023-05-16T15:28:28.369Z,4.30
2023-05-16T15:30:54.717Z,3.93
2023-05-16T15:33:21.120Z,1.47
2023-05-16T15:35:48.387Z,2.23
2023-05-16T15:38:14.725Z,3.60
2023-05-16T15:40:41.107Z,5.22
2023-05-16T15:43:07.379Z,1.92
2023-05-16T15:45:33.946Z,2.25
2023-05-16T15:48:00.328Z,3.55
2023-05-16T15:50:26.772Z,2.22
2023-05-16T15:52:53.140Z,2.80
2023-05-16T15:55:19.543Z,3.42
2023-05-16T15:57:46.365Z,2.83
2023-05-16T16:00:13.002Z,4.10
2023-05-16T16:02:40.206Z,3.53
2023-05-16T16:05:06.974Z,2.58
2023-05-16T16:07:33.312Z,3.17
2023-05-16T16:09:59.711Z,5.88
2023-05-16T16:12:26.081Z,3.10
2023-05-16T16:14:52.583Z,2.53
2023-05-16T16:17:19.024Z,3.58
2023-05-16T16:19:45.507Z,2.45
2023-05-16T16:22:11.935Z,1.63
2023-05-16T16:24:38.346Z,3.15
2023-05-16T16:27:06.100Z,2.75
2023-05-16T16:29:32.498Z,3.55
2023-05-16T16:31:58.976Z,3.40
2023-05-16T16:34:25.470Z,3.58
2023-05-16T16:36:51.906Z,4.57
2023-05-16T16:39:20.640Z,6.18
2023-05-16T16:41:46.951Z,3.65
2023-05-16T16:44:13.500Z,2.78
2023-05-16T16:46:39.885Z,5.93
2023-05-16T16:49:06.494Z,5.78
2023-05-16T16:51:33.496Z,4.03
2023-05-16T16:53:59.846Z,3.93
2023-05-16T16:56:27.951Z,4.87
2023-05-16T16:58:54.322Z,3.63
2023-05-16T17:01:21.172Z,4.67
2023-05-16T17:03:47.566Z,6.20
2023-05-16T17:06:13.914Z,3.40
2023-05-16T17:08:40.269Z,3.43
2023-05-16T17:11:07.743Z,3.87
2023-05-16T17:13:37.258Z,4.67
2023-05-16T17:16:04.108Z,3.77
2023-05-16T17:18:32.365Z,3.03
2023-05-16T17:21:01.150Z,4.03
2023-05-16T17:23:27.706Z,4.37
2023-05-16T17:25:54.012Z,2.63
2023-05-16T17:28:20.397Z,5.77
2023-05-16T17:30:46.898Z,6.87
2023-05-16T17:33:13.295Z,6.90
2023-05-16T17:35:40.976Z,3.60
2023-05-16T17:38:07.381Z,6.00
2023-05-16T17:40:33.864Z,11.27
2023-05-16T17:43:00.208Z,10.83
2023-05-16T17:45:26.719Z,3.23
2023-05-16T17:47:53.216Z,2.77
2023-05-16T17:50:20.311Z,4.77
2023-05-16T17:52:47.193Z,4.80
2023-05-16T17:55:13.617Z,3.23
2023-05-16T17:57:39.919Z,3.43
2023-05-16T18:00:07.016Z,3.37
2023-05-16T18:02:34.877Z,3.87
2023-05-16T18:05:02.429Z,3.23
2023-05-16T18:07:29.109Z,5.03
2023-05-16T18:09:55.505Z,3.03
2023-05-16T18:12:22.036Z,4.17
2023-05-16T18:14:48.509Z,3.87
2023-05-16T18:17:14.875Z,3.53
2023-05-16T18:19:41.523Z,4.20
2023-05-16T18:22:08.731Z,3.57
2023-05-16T18:24:35.471Z,7.27
2023-05-16T18:27:02.904Z,4.30
2023-05-16T18:29:29.870Z,3.13
2023-05-16T18:31:57.083Z,4.80
2023-05-16T18:34:23.486Z,3.17
2023-05-16T18:36:49.838Z,3.90
2023-05-16T18:39:17.848Z,3.17
2023-05-16T18:41:46.651Z,4.30
2023-05-16T18:44:13.019Z,3.57
2023-05-16T18:46:39.386Z,4.53
2023-05-16T18:49:05.800Z,4.30
2023-05-16T18:51:32.202Z,6.60
2023-05-16T18:53:58.560Z,5.23
2023-05-16T18:56:24.969Z,2.90
2023-05-16T18:58:51.486Z,4.50
2023-05-16T19:01:21.974Z,3.50
2023-05-16T19:03:49.158Z,8.23
2023-05-16T19:06:15.713Z,7.37
2023-05-16T19:08:48.058Z,4.60
2023-05-16T19:11:14.768Z,5.17
2023-05-16T19:13:41.368Z,3.10
2023-05-16T19:16:08.525Z,2.50
2023-05-16T19:18:35.814Z,6.03
2023-05-16T19:21:02.355Z,3.13
2023-05-16T19:23:28.755Z,6.10
2023-05-16T19:25:55.040Z,3.23
2023-05-16T19:28:21.441Z,4.63
2023-05-16T19:30:47.782Z,5.07
2023-05-16T19:33:14.897Z,4.20
2023-05-16T19:35:41.354Z,3.57
2023-05-16T19:38:07.680Z,5.23
2023-05-16T19:40:34.426Z,2.03
2023-05-16T19:43:00.884Z,4.87
2023-05-16T19:45:27.469Z,3.90
2023-05-16T19:47:54.168Z,3.93
2023-05-16T19:50:21.574Z,4.03
2023-05-16T19:52:48.027Z,5.67
2023-05-16T19:55:14.364Z,3.10
2023-05-16T19:57:40.642Z,5.53
2023-05-16T20:00:07.385Z,4.70
2023-05-16T20:02:33.741Z,4.83
2023-05-16T20:05:00.295Z,3.70
2023-05-16T20:07:27.467Z,7.33
2023-05-16T20:09:53.830Z,7.37
2023-05-16T20:12:20.122Z,4.70
2023-05-16T20:14:46.717Z,3.70
2023-05-16T20:17:13.102Z,5.03
2023-05-16T20:19:43.776Z,7.27
2023-05-16T20:22:10.667Z,4.17
2023-05-16T20:24:37.498Z,4.30
2023-05-16T20:27:03.995Z,5.10
2023-05-16T20:29:32.437Z,3.97
2023-05-16T20:31:58.782Z,2.97
2023-05-16T20:34:25.144Z,5.10
2023-05-16T20:36:51.547Z,3.83
2023-05-16T20:39:17.996Z,6.23
2023-05-16T20:41:44.334Z,5.43
2023-05-16T20:44:10.795Z,6.53
2023-05-16T20:46:40.428Z,6.60
2023-05-16T20:49:06.782Z,5.77
2023-05-16T20:51:33.180Z,3.57
2023-05-16T20:53:59.577Z,5.77
2023-05-16T20:56:26.252Z,5.93
2023-05-16T20:58:52.538Z,6.83
2023-05-16T21:01:18.845Z,4.73
2023-05-16T21:03:45.367Z,4.93
2023-05-16T21:06:11.749Z,4.80
2023-05-16T21:08:38.150Z,7.23
2023-05-16T21:11:04.576Z,6.53
2023-05-16T21:13:31.206Z,5.10
2023-05-16T21:15:57.661Z,5.53
2023-05-16T21:18:24.082Z,5.53
2023-05-16T21:20:50.546Z,5.83
2023-05-16T21:23:16.845Z,4.37
2023-05-16T21:25:43.216Z,6.33
2023-05-16T21:28:09.506Z,5.23
2023-05-16T21:30:35.852Z,8.30
2023-05-16T21:33:02.274Z,6.40
2023-05-16T21:35:28.980Z,7.07
2023-05-16T21:37:55.668Z,6.03
2023-05-16T21:40:24.900Z,4.70
2023-05-16T21:42:54.747Z,4.37
2023-05-16T21:45:21.122Z,5.57
2023-05-16T21:47:47.552Z,4.37
2023-05-16T21:50:14.257Z,4.97
2023-05-16T21:52:40.696Z,8.53
2023-05-16T21:55:07.309Z,4.97
2023-05-16T21:57:33.676Z,9.70
2023-05-16T22:00:00.026Z,6.00
2023-05-16T22:02:26.414Z,6.67
2023-05-16T22:04:52.851Z,4.97
2023-05-16T22:07:19.494Z,3.90
2023-05-16T22:09:50.578Z,4.80
2023-05-16T22:12:17.094Z,3.90
2023-05-16T22:14:43.512Z,7.37
2023-05-16T22:17:09.920Z,5.33
2023-05-16T22:19:36.295Z,5.90
2023-05-16T22:22:02.617Z,4.70
2023-05-16T22:24:28.928Z,10.30
2023-05-16T22:26:55.421Z,4.60
2023-05-16T22:29:21.703Z,6.57
2023-05-16T22:31:47.970Z,4.70
2023-05-16T22:34:14.259Z,7.73
2023-05-16T22:36:40.585Z,8.73
2023-05-16T22:39:07.142Z,4.67
2023-05-16T22:41:33.721Z,4.57
2023-05-16T22:44:00.117Z,4.63
2023-05-16T22:46:26.429Z,4.77
2023-05-16T22:48:52.850Z,2.93
2023-05-16T22:51:19.258Z,7.03
2023-05-16T22:53:45.619Z,5.07
2023-05-16T22:56:11.996Z,4.57
2023-05-16T22:58:38.298Z,3.27
2023-05-16T23:01:04.629Z,4.07
2023-05-16T23:03:31.186Z,10.10
2023-05-16T23:05:57.521Z,5.03
2023-05-16T23:08:23.912Z,5.50
2023-05-16T23:10:50.384Z,5.33
2023-05-16T23:13:16.740Z,6.83
2023-05-16T23:15:43.052Z,4.10
2023-05-16T23:18:09.504Z,4.73
2023-05-16T23:20:35.977Z,6.20
2023-05-16T23:23:02.376Z,5.43
2023-05-16T23:25:29.098Z,4.43
2023-05-16T23:27:57.784Z,3.00
2023-05-16T23:30:24.571Z,4.17
2023-05-16T23:32:53.721Z,4.70
2023-05-16T23:35:20.132Z,5.73
2023-05-16T23:37:46.432Z,7.20
2023-05-16T23:40:12.939Z,5.73
2023-05-16T23:42:42.267Z,4.20
2023-05-16T23:45:09.125Z,5.73
2023-05-16T23:47:35.614Z,3.57
2023-05-16T23:50:02.308Z,5.37
2023-05-16T23:52:28.671Z,5.83
2023-05-16T23:54:55.153Z,7.30
2023-05-16T23:57:21.564Z,5.87
2023-05-16T23:59:48.061Z,6.87
